Pagrindinis puslapis
METAR-TAF:

METAR-TAF

Oro uostai :

San Antonio del Táchira, Venesuela

platuma: 07-51N, ilguma: 072-27W, Aukštis: 377 m

METAR: trūkstamas

Laikas: 10:21 (14:21 UTC)

Prognozė

Ataskaita buvo paskelbta 4 valandos ir 21 minutes, ne 10:00 UTC
Prognozė galioja nuo 16 metu 12 UTC su 17 metu 12 UTC
Vėjas 5 kt iš Vakarų/Šiaurės Vakarų
Matomumas 10 km arba daugiau
Su prošvaistėmis ne aukštis 2000 ft
Tapsmas
nuo 16 metu 12 UTC su 16 metu 16 UTC
Vėjas 3 kt iš Vakarų
Matomumas: 9000 m
Su prošvaistėmis ne aukštis 2000 ft
dulksna

TAF: SVSA 161000Z 1612/1712 30005KT 9999 BKN020 TX32/19Z TN23/09Z BECMG 1612/1616 28003KT 9000 DZ BKN020

Orai ataskaitas ir orų prognozės (METAR, TAF).

turimą stotys yra geltonos ir raudonos taškus žemėlapyje.

Perkelti pele per norėdami pamatyti stoties vardą.

Tada spustelėkite, norėdami matyti oro stebėjimo ir prognozės.

Norėdami pakeisti žemėlapį: spustelėkite ant žalios mygtukų su juodo kryžiaus žemyn,; žalią mygtuką su brūkšneliu, jei norite nutolinti; arba žalių rodyklių gretimoms žemėlapius.


METAR-TAF: